| time (UTC) | temp F | wind direction | speed MPH | gust MPH | rain 1hr in | rain 24hr in | rain mn in | humidity % | barometer mb |
| 20260507193036 | 58 | 335 | 3.0 | 7.0 | 0.00 | 0.23 | 0.00 | 36 | 1004.5 |
| 20260507191533 | 57 | 323 | 2.0 | 5.0 | 0.00 | 0.23 | 0.00 | 37 | 1004.7 |
| 20260507190032 | 56 | 355 | 2.0 | 6.0 | 0.00 | 0.23 | 0.00 | 37 | 1004.8 |
| 20260507184531 | 57 | 322 | 2.0 | 4.0 | 0.00 | 0.28 | 0.00 | 37 | 1005.0 |
| 20260507183042 | 58 | 356 | 2.0 | 7.0 | 0.00 | 0.28 | 0.00 | 35 | 1005.0 |
| 20260507181530 | 59 | 25 | 2.0 | 5.0 | 0.00 | 0.28 | 0.00 | 38 | 1005.1 |
| 20260507180032 | 58 | 308 | 1.0 | 6.0 | 0.00 | 0.28 | 0.00 | 37 | 1005.0 |
| 20260507174527 | 58 | 54 | 2.0 | 7.0 | 0.00 | 0.31 | 0.00 | 38 | 1005.0 |
| 20260507173026 | 57 | 289 | 0.0 | 4.0 | 0.00 | 0.31 | 0.00 | 41 | 1005.1 |
| 20260507171523 | 58 | 64 | 1.0 | 6.0 | 0.00 | 0.31 | 0.00 | 40 | 1005.4 |
| 20260507170023 | 57 | 86 | 1.0 | 7.0 | 0.00 | 0.31 | 0.00 | 41 | 1005.4 |
| 20260507164521 | 57 | 328 | 4.0 | 7.0 | 0.00 | 0.31 | 0.00 | 40 | 1005.6 |
| 20260507163020 | 57 | 331 | 2.0 | 7.0 | 0.00 | 0.31 | 0.00 | 43 | 1005.5 |
| 20260507161523 | 57 | 255 | 3.0 | 6.0 | 0.00 | 0.31 | 0.00 | 46 | 1005.5 |
| 20260507160036 | 56 | 339 | 1.0 | 6.0 | 0.00 | 0.31 | 0.00 | 45 | 1005.8 |
| 20260507154516 | 56 | 336 | 2.0 | 5.0 | 0.00 | 0.31 | 0.00 | 51 | 1005.9 |
| 20260507153011 | 55 | 336 | 2.0 | 8.0 | 0.00 | 0.31 | 0.00 | 53 | 1006.1 |
| 20260507151508 | 54 | 19 | 2.0 | 8.0 | 0.00 | 0.31 | 0.00 | 60 | 1006.3 |
| 20260507150006 | 53 | 278 | 1.0 | 4.0 | 0.00 | 0.31 | 0.00 | 65 | 1006.3 |
| 20260507144502 | 53 | 318 | 0.0 | 4.0 | 0.00 | 0.31 | 0.00 | 66 | 1006.4 |
| 20260507143100 | 53 | 335 | 1.0 | 4.0 | 0.00 | 0.31 | 0.00 | 66 | 1006.3 |
| 20260507141600 | 52 | 338 | 2.0 | 5.0 | 0.00 | 0.31 | 0.00 | 66 | 1006.5 |
| 20260507140106 | 52 | 330 | 2.0 | 6.0 | 0.00 | 0.31 | 0.00 | 68 | 1006.4 |
| 20260507134553 | 52 | 328 | 1.0 | 6.0 | 0.00 | 0.31 | 0.00 | 71 | 1006.7 |
| 20260507133050 | 51 | 314 | 1.0 | 8.0 | 0.00 | 0.31 | 0.00 | 73 | 1006.7 |
| 20260507131547 | 50 | 335 | 1.0 | 3.0 | 0.00 | 0.31 | 0.00 | 77 | 1006.9 |
| 20260507130054 | 50 | 315 | 1.0 | 4.0 | 0.00 | 0.31 | 0.00 | 78 | 1006.8 |
| 20260507124557 | 49 | 326 | 0.0 | 2.0 | 0.00 | 0.31 | 0.00 | 80 | 1006.7 |
| 20260507123038 | 48 | 303 | 0.0 | 2.0 | 0.00 | 0.31 | 0.00 | 82 | 1006.7 |
| 20260507121538 | 47 | 327 | 1.0 | 4.0 | 0.00 | 0.31 | 0.00 | 82 | 1006.9 |
| 20260507120039 | 47 | 17 | 0.0 | 4.0 | 0.00 | 0.31 | 0.00 | 84 | 1007.0 |
| 20260507114541 | 46 | 274 | 0.0 | 5.0 | 0.00 | 0.31 | 0.00 | 86 | 1006.8 |
| 20260507113035 | 45 | 352 | 0.0 | 3.0 | 0.00 | 0.31 | 0.00 | 87 | 1006.8 |
| 20260507111532 | 45 | 329 | 0.0 | 3.0 | 0.00 | 0.31 | 0.00 | 88 | 1006.9 |
| 20260507110036 | 44 | 349 | 0.0 | 2.0 | 0.00 | 0.31 | 0.00 | 90 | 1006.6 |
| 20260507104530 | 44 | 309 | 0.0 | 0.0 | 0.00 | 0.31 | 0.00 | 89 | 1006.4 |
| 20260507103029 | 44 | 322 | 0.0 | 2.0 | 0.00 | 0.31 | 0.00 | 89 | 1006.4 |
| 20260507101527 | 44 | 324 | 0.0 | 6.0 | 0.00 | 0.31 | 0.00 | 89 | 1006.1 |
| 20260507100026 | 44 | 320 | 1.0 | 3.0 | 0.00 | 0.31 | 0.00 | 89 | 1006.6 |
| 20260507094525 | 44 | 328 | 1.0 | 4.0 | 0.00 | 0.31 | 0.00 | 89 | 1006.1 |
| 20260507093031 | 44 | 321 | 1.0 | 4.0 | 0.00 | 0.31 | 0.00 | 89 | 1006.3 |
| 20260507091535 | 44 | 327 | 1.0 | 4.0 | 0.00 | 0.31 | 0.00 | 90 | 1006.3 |
| 20260507090021 | 44 | 328 | 0.0 | 2.0 | 0.00 | 0.31 | 0.00 | 89 | 1006.6 |
| 20260507084524 | 45 | 326 | 1.0 | 4.0 | 0.00 | 0.31 | 0.00 | 89 | 1005.8 |
| 20260507083018 | 45 | 15 | 1.0 | 6.0 | 0.00 | 0.31 | 0.00 | 90 | 1005.8 |
| 20260507081520 | 45 | 349 | 0.0 | 3.0 | 0.00 | 0.31 | 0.00 | 90 | 1005.8 |
| 20260507080015 | 45 | 317 | 0.0 | 3.0 | 0.00 | 0.31 | 0.00 | 90 | 1005.8 |
| 20260507074514 | 45 | 335 | 0.0 | 2.0 | 0.00 | 0.31 | 0.00 | 91 | 1005.9 |
| 20260507073012 | 45 | 321 | 1.0 | 4.0 | 0.00 | 0.31 | 0.00 | 91 | 1005.3 |
| 20260507071511 | 45 | 315 | 1.0 | 3.0 | 0.00 | 0.31 | 0.00 | 92 | 1005.5 |
| 20260507070012 | 46 | 322 | 1.0 | 5.0 | 0.00 | 0.31 | 0.00 | 92 | 1005.2 |
| 20260507064508 | 46 | 323 | 1.0 | 5.0 | 0.00 | 0.31 | 0.00 | 92 | 1005.3 |
| 20260507063023 | 46 | 315 | 2.0 | 6.0 | 0.00 | 0.31 | 0.00 | 93 | 1005.2 |
| 20260507061504 | 46 | 309 | 1.0 | 4.0 | 0.00 | 0.31 | 0.00 | 94 | 1005.4 |
| 20260507060002 | 47 | 319 | 0.0 | 3.0 | 0.00 | 0.31 | 0.00 | 94 | 1005.4 |
| 20260507054501 | 47 | 321 | 2.0 | 5.0 | 0.00 | 0.31 | 0.00 | 94 | 1005.3 |
| 20260507053100 | 47 | 309 | 1.0 | 4.0 | 0.00 | 0.31 | 0.00 | 95 | 1005.3 |
| 20260507051602 | 47 | 283 | 0.0 | 4.0 | 0.00 | 0.31 | 0.00 | 95 | 1005.2 |
| 20260507050101 | 47 | 330 | 1.0 | 5.0 | 0.00 | 0.31 | 0.00 | 95 | 1005.0 |
| 20260507044556 | 47 | 321 | 1.0 | 3.0 | 0.00 | 0.31 | 0.00 | 95 | 1004.9 |
| 20260507043055 | 48 | 328 | 1.0 | 3.0 | 0.00 | 0.31 | 0.00 | 95 | 1005.1 |
| 20260507041551 | 48 | 345 | 1.0 | 4.0 | 0.00 | 0.31 | 0.00 | 95 | 1005.2 |
| 20260507040047 | 48 | 323 | 2.0 | 4.0 | 0.05 | 0.31 | 0.00 | 95 | 1005.2 |
| 20260507034545 | 49 | 323 | 0.0 | 2.0 | 0.07 | 0.31 | 0.31 | 95 | 1004.9 |
| 20260507033045 | 49 | 276 | 0.0 | 3.0 | 0.08 | 0.31 | 0.31 | 95 | 1005.0 |
| 20260507031541 | 50 | 320 | 1.0 | 6.0 | 0.09 | 0.31 | 0.31 | 95 | 1005.0 |
| 20260507030041 | 50 | 316 | 2.0 | 7.0 | 0.04 | 0.26 | 0.26 | 94 | 1005.1 |
| 20260507024536 | 52 | 349 | 2.0 | 7.0 | 0.03 | 0.24 | 0.24 | 95 | 1004.7 |
| 20260507023030 | 53 | 326 | 2.0 | 5.0 | 0.09 | 0.23 | 0.23 | 95 | 1004.6 |
| 20260507021528 | 54 | 324 | 1.0 | 6.0 | 0.09 | 0.22 | 0.22 | 95 | 1004.3 |
| 20260507020031 | 55 | 314 | 1.0 | 6.0 | 0.09 | 0.22 | 0.22 | 95 | 1003.9 |
| 20260507014519 | 57 | 321 | 0.0 | 4.0 | 0.08 | 0.21 | 0.21 | 96 | 1004.0 |
| 20260507013033 | 58 | 236 | 0.0 | 1.0 | 0.01 | 0.14 | 0.14 | 96 | 1003.6 |
| 20260507011516 | 58 | 240 | 0.0 | 2.0 | 0.00 | 0.13 | 0.13 | 96 | 1003.4 |
| 20260507010015 | 58 | 236 | 0.0 | 2.0 | 0.00 | 0.13 | 0.13 | 96 | 1003.5 |
| 20260507004514 | 58 | 229 | 0.0 | 2.0 | 0.00 | 0.13 | 0.13 | 96 | 1003.4 |
| 20260507003014 | 58 | 203 | 0.0 | 2.0 | 0.00 | 0.13 | 0.13 | 96 | 1003.3 |
| 20260507001513 | 58 | 219 | 0.0 | 2.0 | 0.00 | 0.13 | 0.13 | 96 | 1003.3 |
| 20260507000015 | 58 | 169 | 0.0 | 3.0 | 0.00 | 0.13 | 0.13 | 96 | 1003.2 |
| 20260506234520 | 58 | 204 | 0.0 | 3.0 | 0.00 | 0.13 | 0.13 | 96 | 1003.0 |
| 20260506233013 | 58 | 233 | 0.0 | 2.0 | 0.00 | 0.13 | 0.13 | 96 | 1003.0 |
| 20260506231510 | 58 | 238 | 0.0 | 3.0 | 0.00 | 0.13 | 0.13 | 96 | 1003.1 |
| 20260506230009 | 58 | 259 | 0.0 | 3.0 | 0.00 | 0.13 | 0.13 | 96 | 1003.0 |
| 20260506224509 | 58 | 226 | 0.0 | 4.0 | 0.00 | 0.13 | 0.13 | 96 | 1003.0 |
| 20260506223007 | 58 | 214 | 1.0 | 4.0 | 0.00 | 0.13 | 0.13 | 96 | 1003.1 |
| 20260506221504 | 58 | 288 | 1.0 | 3.0 | 0.00 | 0.13 | 0.13 | 96 | 1003.2 |
| 20260506220010 | 58 | 153 | 1.0 | 6.0 | 0.00 | 0.13 | 0.13 | 96 | 1003.4 |
| 20260506214504 | 59 | 188 | 1.0 | 4.0 | 0.01 | 0.13 | 0.13 | 96 | 1003.3 |
| 20260506213002 | 59 | 237 | 1.0 | 4.0 | 0.01 | 0.13 | 0.13 | 96 | 1003.5 |
| 20260506211610 | 59 | 252 | 1.0 | 5.0 | 0.01 | 0.13 | 0.13 | 96 | 1003.5 |
| 20260506210100 | 60 | 243 | 1.0 | 5.0 | 0.02 | 0.13 | 0.13 | 96 | 1003.5 |
| 20260506204600 | 60 | 168 | 0.0 | 4.0 | 0.03 | 0.12 | 0.12 | 96 | 1003.5 |
| 20260506203057 | 60 | 238 | 0.0 | 3.0 | 0.04 | 0.12 | 0.12 | 96 | 1003.7 |
| 20260506201556 | 60 | 245 | 0.0 | 3.0 | 0.04 | 0.12 | 0.12 | 96 | 1003.9 |
| 20260506200055 | 60 | 242 | 1.0 | 5.0 | 0.03 | 0.11 | 0.11 | 96 | 1003.9 |
| 20260506194555 | 60 | 182 | 0.0 | 2.0 | 0.02 | 0.09 | 0.09 | 96 | 1004.2 |